sensor_id;sensor_type;location;lat;lon;timestamp;temperature;humidity
14006;DHT22;7078;51.542;7.314;2023-11-19T00:00:09;11.00;99.90
14006;DHT22;7078;51.542;7.314;2023-11-19T00:02:39;11.00;99.90
14006;DHT22;7078;51.542;7.314;2023-11-19T00:05:05;11.00;99.90
14006;DHT22;7078;51.542;7.314;2023-11-19T00:07:35;11.10;99.90
14006;DHT22;7078;51.542;7.314;2023-11-19T00:10:01;11.10;99.90
14006;DHT22;7078;51.542;7.314;2023-11-19T00:12:40;11.20;99.90
14006;DHT22;7078;51.542;7.314;2023-11-19T00:15:06;11.20;99.90
14006;DHT22;7078;51.542;7.314;2023-11-19T00:17:39;11.30;99.90
14006;DHT22;7078;51.542;7.314;2023-11-19T00:20:18;11.30;99.90
14006;DHT22;7078;51.542;7.314;2023-11-19T00:22:44;11.30;99.90
14006;DHT22;7078;51.542;7.314;2023-11-19T00:25:13;11.30;99.90
14006;DHT22;7078;51.542;7.314;2023-11-19T00:27:39;11.40;99.90
14006;DHT22;7078;51.542;7.314;2023-11-19T00:30:05;11.40;99.90
14006;DHT22;7078;51.542;7.314;2023-11-19T00:32:32;11.40;99.90
14006;DHT22;7078;51.542;7.314;2023-11-19T00:34:58;11.50;99.90
14006;DHT22;7078;51.542;7.314;2023-11-19T00:37:23;11.40;99.90
14006;DHT22;7078;51.542;7.314;2023-11-19T00:39:49;11.50;99.90
14006;DHT22;7078;51.542;7.314;2023-11-19T00:42:15;11.50;99.90
14006;DHT22;7078;51.542;7.314;2023-11-19T00:44:40;11.50;99.90
14006;DHT22;7078;51.542;7.314;2023-11-19T00:47:07;11.60;99.90
14006;DHT22;7078;51.542;7.314;2023-11-19T00:49:32;11.60;99.90
14006;DHT22;7078;51.542;7.314;2023-11-19T00:51:58;11.60;99.90
14006;DHT22;7078;51.542;7.314;2023-11-19T00:54:24;11.70;99.90
14006;DHT22;7078;51.542;7.314;2023-11-19T00:56:52;11.70;99.90
14006;DHT22;7078;51.542;7.314;2023-11-19T00:59:18;11.80;99.90
14006;DHT22;7078;51.542;7.314;2023-11-19T01:01:43;11.80;99.90
14006;DHT22;7078;51.542;7.314;2023-11-19T01:04:09;11.90;99.90
14006;DHT22;7078;51.542;7.314;2023-11-19T01:06:35;11.90;99.90
14006;DHT22;7078;51.542;7.314;2023-11-19T01:09:00;11.90;99.90
14006;DHT22;7078;51.542;7.314;2023-11-19T01:11:26;12.00;99.90
14006;DHT22;7078;51.542;7.314;2023-11-19T01:13:52;12.00;99.90
14006;DHT22;7078;51.542;7.314;2023-11-19T01:16:18;12.10;99.90
14006;DHT22;7078;51.542;7.314;2023-11-19T01:18:44;12.10;99.90
14006;DHT22;7078;51.542;7.314;2023-11-19T01:21:10;12.20;99.90
14006;DHT22;7078;51.542;7.314;2023-11-19T01:23:36;12.10;99.90
14006;DHT22;7078;51.542;7.314;2023-11-19T01:26:02;12.10;99.90
14006;DHT22;7078;51.542;7.314;2023-11-19T01:28:28;12.10;99.90
14006;DHT22;7078;51.542;7.314;2023-11-19T01:30:53;12.10;99.90
14006;DHT22;7078;51.542;7.314;2023-11-19T01:33:19;12.10;99.90
14006;DHT22;7078;51.542;7.314;2023-11-19T01:35:44;12.20;99.90
14006;DHT22;7078;51.542;7.314;2023-11-19T01:38:10;12.20;99.90
14006;DHT22;7078;51.542;7.314;2023-11-19T01:40:36;12.20;99.90
14006;DHT22;7078;51.542;7.314;2023-11-19T01:43:02;12.20;99.90
14006;DHT22;7078;51.542;7.314;2023-11-19T01:45:30;12.30;99.90
14006;DHT22;7078;51.542;7.314;2023-11-19T01:47:56;12.30;99.90
14006;DHT22;7078;51.542;7.314;2023-11-19T01:50:23;12.40;99.90
14006;DHT22;7078;51.542;7.314;2023-11-19T01:52:52;12.30;99.90
14006;DHT22;7078;51.542;7.314;2023-11-19T01:55:18;12.30;99.90
14006;DHT22;7078;51.542;7.314;2023-11-19T01:57:44;12.20;99.90
14006;DHT22;7078;51.542;7.314;2023-11-19T02:00:12;12.30;99.90
14006;DHT22;7078;51.542;7.314;2023-11-19T02:02:38;12.20;99.90
14006;DHT22;7078;51.542;7.314;2023-11-19T02:05:06;12.30;99.90
14006;DHT22;7078;51.542;7.314;2023-11-19T02:07:32;12.30;99.90
14006;DHT22;7078;51.542;7.314;2023-11-19T02:09:57;12.30;99.90
14006;DHT22;7078;51.542;7.314;2023-11-19T02:12:26;12.40;99.90
14006;DHT22;7078;51.542;7.314;2023-11-19T02:14:53;12.30;99.90
14006;DHT22;7078;51.542;7.314;2023-11-19T02:17:30;12.40;99.90
14006;DHT22;7078;51.542;7.314;2023-11-19T02:19:57;12.40;99.90
14006;DHT22;7078;51.542;7.314;2023-11-19T02:22:24;12.40;99.90
14006;DHT22;7078;51.542;7.314;2023-11-19T02:24:51;12.40;99.90
14006;DHT22;7078;51.542;7.314;2023-11-19T02:27:40;12.40;99.90
14006;DHT22;7078;51.542;7.314;2023-11-19T02:30:06;12.40;99.90
14006;DHT22;7078;51.542;7.314;2023-11-19T02:32:34;12.50;99.90
14006;DHT22;7078;51.542;7.314;2023-11-19T02:35:01;12.50;99.90
14006;DHT22;7078;51.542;7.314;2023-11-19T02:37:26;12.50;99.90
14006;DHT22;7078;51.542;7.314;2023-11-19T02:39:53;12.50;99.90
14006;DHT22;7078;51.542;7.314;2023-11-19T02:42:19;12.40;99.90
14006;DHT22;7078;51.542;7.314;2023-11-19T02:44:45;12.60;99.90
14006;DHT22;7078;51.542;7.314;2023-11-19T02:47:11;12.50;99.90
14006;DHT22;7078;51.542;7.314;2023-11-19T02:49:37;12.60;99.90
14006;DHT22;7078;51.542;7.314;2023-11-19T02:52:03;12.50;99.90
14006;DHT22;7078;51.542;7.314;2023-11-19T02:54:31;12.50;99.90
14006;DHT22;7078;51.542;7.314;2023-11-19T02:57:00;12.60;99.90
14006;DHT22;7078;51.542;7.314;2023-11-19T02:59:28;12.60;99.90
14006;DHT22;7078;51.542;7.314;2023-11-19T03:02:04;12.60;99.90
14006;DHT22;7078;51.542;7.314;2023-11-19T03:04:32;12.60;99.90
14006;DHT22;7078;51.542;7.314;2023-11-19T03:06:57;12.60;99.90
14006;DHT22;7078;51.542;7.314;2023-11-19T03:09:23;12.70;99.90
14006;DHT22;7078;51.542;7.314;2023-11-19T03:11:49;12.70;99.90
14006;DHT22;7078;51.542;7.314;2023-11-19T03:14:15;12.60;99.90
14006;DHT22;7078;51.542;7.314;2023-11-19T03:16:41;12.60;99.90
14006;DHT22;7078;51.542;7.314;2023-11-19T03:19:06;12.70;99.90
14006;DHT22;7078;51.542;7.314;2023-11-19T03:21:32;12.70;99.90
14006;DHT22;7078;51.542;7.314;2023-11-19T03:23:58;12.70;99.90
14006;DHT22;7078;51.542;7.314;2023-11-19T03:26:27;12.70;99.90
14006;DHT22;7078;51.542;7.314;2023-11-19T03:28:53;12.90;99.90
14006;DHT22;7078;51.542;7.314;2023-11-19T03:31:19;12.70;99.90
14006;DHT22;7078;51.542;7.314;2023-11-19T03:33:45;12.70;99.90
14006;DHT22;7078;51.542;7.314;2023-11-19T03:36:12;12.70;99.90
14006;DHT22;7078;51.542;7.314;2023-11-19T03:38:38;12.70;99.90
14006;DHT22;7078;51.542;7.314;2023-11-19T03:41:13;12.70;99.90
14006;DHT22;7078;51.542;7.314;2023-11-19T03:43:39;12.80;99.90
14006;DHT22;7078;51.542;7.314;2023-11-19T03:46:15;12.70;99.90
14006;DHT22;7078;51.542;7.314;2023-11-19T03:48:41;12.70;99.90
14006;DHT22;7078;51.542;7.314;2023-11-19T03:51:06;12.80;99.90
14006;DHT22;7078;51.542;7.314;2023-11-19T03:53:32;12.70;99.90
14006;DHT22;7078;51.542;7.314;2023-11-19T03:55:57;12.70;99.90
14006;DHT22;7078;51.542;7.314;2023-11-19T03:58:24;12.60;99.90
14006;DHT22;7078;51.542;7.314;2023-11-19T04:00:49;12.60;99.90
14006;DHT22;7078;51.542;7.314;2023-11-19T04:03:15;12.60;99.90
14006;DHT22;7078;51.542;7.314;2023-11-19T04:05:40;12.50;99.90
14006;DHT22;7078;51.542;7.314;2023-11-19T04:08:06;12.50;99.90
14006;DHT22;7078;51.542;7.314;2023-11-19T04:10:31;12.50;99.90
14006;DHT22;7078;51.542;7.314;2023-11-19T04:12:57;12.50;99.90
14006;DHT22;7078;51.542;7.314;2023-11-19T04:15:23;12.50;99.90
14006;DHT22;7078;51.542;7.314;2023-11-19T04:17:49;12.40;99.90
14006;DHT22;7078;51.542;7.314;2023-11-19T04:20:15;12.30;99.90
14006;DHT22;7078;51.542;7.314;2023-11-19T04:22:40;12.40;99.90
14006;DHT22;7078;51.542;7.314;2023-11-19T04:25:06;12.40;99.90
14006;DHT22;7078;51.542;7.314;2023-11-19T04:27:32;12.40;99.90
14006;DHT22;7078;51.542;7.314;2023-11-19T04:29:58;12.30;99.90
14006;DHT22;7078;51.542;7.314;2023-11-19T04:32:23;12.30;99.90
14006;DHT22;7078;51.542;7.314;2023-11-19T04:34:50;12.30;99.90
14006;DHT22;7078;51.542;7.314;2023-11-19T04:37:16;12.20;99.90
14006;DHT22;7078;51.542;7.314;2023-11-19T04:39:44;12.20;99.90
14006;DHT22;7078;51.542;7.314;2023-11-19T04:42:10;12.20;99.90
14006;DHT22;7078;51.542;7.314;2023-11-19T04:44:36;12.20;99.90
14006;DHT22;7078;51.542;7.314;2023-11-19T04:47:01;12.10;99.90
14006;DHT22;7078;51.542;7.314;2023-11-19T04:49:27;12.20;99.90
14006;DHT22;7078;51.542;7.314;2023-11-19T04:51:52;12.20;99.90
14006;DHT22;7078;51.542;7.314;2023-11-19T04:54:19;12.20;99.90
14006;DHT22;7078;51.542;7.314;2023-11-19T04:56:47;12.10;99.90
14006;DHT22;7078;51.542;7.314;2023-11-19T04:59:13;12.20;99.90
14006;DHT22;7078;51.542;7.314;2023-11-19T05:01:38;12.20;99.90
14006;DHT22;7078;51.542;7.314;2023-11-19T05:04:04;12.20;99.90
14006;DHT22;7078;51.542;7.314;2023-11-19T05:06:30;12.20;99.90
14006;DHT22;7078;51.542;7.314;2023-11-19T05:08:56;12.20;99.90
14006;DHT22;7078;51.542;7.314;2023-11-19T05:11:22;12.20;99.90
14006;DHT22;7078;51.542;7.314;2023-11-19T05:13:48;12.20;99.90
14006;DHT22;7078;51.542;7.314;2023-11-19T05:16:14;12.20;99.90
14006;DHT22;7078;51.542;7.314;2023-11-19T05:18:40;12.20;99.90
14006;DHT22;7078;51.542;7.314;2023-11-19T05:21:06;12.20;99.90
14006;DHT22;7078;51.542;7.314;2023-11-19T05:23:32;12.20;99.90
14006;DHT22;7078;51.542;7.314;2023-11-19T05:26:00;12.30;99.90
14006;DHT22;7078;51.542;7.314;2023-11-19T05:28:25;12.30;99.90
14006;DHT22;7078;51.542;7.314;2023-11-19T05:30:51;12.30;99.90
14006;DHT22;7078;51.542;7.314;2023-11-19T05:33:17;12.30;99.90
14006;DHT22;7078;51.542;7.314;2023-11-19T05:35:42;12.30;99.90
14006;DHT22;7078;51.542;7.314;2023-11-19T05:38:08;12.30;99.90
14006;DHT22;7078;51.542;7.314;2023-11-19T05:40:35;12.30;99.90
14006;DHT22;7078;51.542;7.314;2023-11-19T05:43:00;12.30;99.90
14006;DHT22;7078;51.542;7.314;2023-11-19T05:45:26;12.30;99.90
14006;DHT22;7078;51.542;7.314;2023-11-19T05:47:51;12.30;99.90
14006;DHT22;7078;51.542;7.314;2023-11-19T05:50:18;12.30;99.90
14006;DHT22;7078;51.542;7.314;2023-11-19T05:52:43;12.40;99.90
14006;DHT22;7078;51.542;7.314;2023-11-19T05:55:09;12.30;99.90
14006;DHT22;7078;51.542;7.314;2023-11-19T05:57:37;12.40;99.90
14006;DHT22;7078;51.542;7.314;2023-11-19T06:00:03;12.40;99.90
14006;DHT22;7078;51.542;7.314;2023-11-19T06:02:32;12.40;99.90
14006;DHT22;7078;51.542;7.314;2023-11-19T06:04:58;12.30;99.90
14006;DHT22;7078;51.542;7.314;2023-11-19T06:07:24;12.40;99.90
14006;DHT22;7078;51.542;7.314;2023-11-19T06:09:50;12.40;99.90
14006;DHT22;7078;51.542;7.314;2023-11-19T06:12:15;12.40;99.90
14006;DHT22;7078;51.542;7.314;2023-11-19T06:14:41;12.30;99.90
14006;DHT22;7078;51.542;7.314;2023-11-19T06:17:07;12.30;99.90
14006;DHT22;7078;51.542;7.314;2023-11-19T06:19:34;12.30;99.90
14006;DHT22;7078;51.542;7.314;2023-11-19T06:21:59;12.20;99.90
14006;DHT22;7078;51.542;7.314;2023-11-19T06:24:25;12.20;99.90
14006;DHT22;7078;51.542;7.314;2023-11-19T06:26:50;12.20;99.90
14006;DHT22;7078;51.542;7.314;2023-11-19T06:29:16;12.10;99.90
14006;DHT22;7078;51.542;7.314;2023-11-19T06:31:44;12.20;99.90
14006;DHT22;7078;51.542;7.314;2023-11-19T06:34:10;12.10;99.90
14006;DHT22;7078;51.542;7.314;2023-11-19T06:36:36;12.20;99.90
14006;DHT22;7078;51.542;7.314;2023-11-19T06:39:01;12.20;99.90
14006;DHT22;7078;51.542;7.314;2023-11-19T06:41:27;12.20;99.90
14006;DHT22;7078;51.542;7.314;2023-11-19T06:43:54;12.10;99.90
14006;DHT22;7078;51.542;7.314;2023-11-19T06:46:20;12.10;99.90
14006;DHT22;7078;51.542;7.314;2023-11-19T06:48:46;12.10;99.90
14006;DHT22;7078;51.542;7.314;2023-11-19T06:51:12;12.10;99.90
14006;DHT22;7078;51.542;7.314;2023-11-19T06:53:38;12.10;99.90
14006;DHT22;7078;51.542;7.314;2023-11-19T06:56:06;12.10;99.90
14006;DHT22;7078;51.542;7.314;2023-11-19T06:58:36;12.10;99.90
14006;DHT22;7078;51.542;7.314;2023-11-19T07:01:01;12.30;99.90
14006;DHT22;7078;51.542;7.314;2023-11-19T07:03:27;12.10;99.90
14006;DHT22;7078;51.542;7.314;2023-11-19T07:05:52;12.20;99.90
14006;DHT22;7078;51.542;7.314;2023-11-19T07:08:18;12.20;99.90
14006;DHT22;7078;51.542;7.314;2023-11-19T07:10:43;12.20;99.90
14006;DHT22;7078;51.542;7.314;2023-11-19T07:13:09;12.20;99.90
14006;DHT22;7078;51.542;7.314;2023-11-19T07:15:35;12.20;99.90
14006;DHT22;7078;51.542;7.314;2023-11-19T07:18:00;12.20;99.90
14006;DHT22;7078;51.542;7.314;2023-11-19T07:20:26;12.40;99.90
14006;DHT22;7078;51.542;7.314;2023-11-19T07:22:52;12.20;99.90
14006;DHT22;7078;51.542;7.314;2023-11-19T07:25:17;12.20;99.90
14006;DHT22;7078;51.542;7.314;2023-11-19T07:27:43;12.20;99.90
14006;DHT22;7078;51.542;7.314;2023-11-19T07:30:09;12.30;99.90
14006;DHT22;7078;51.542;7.314;2023-11-19T07:32:34;12.30;99.90
14006;DHT22;7078;51.542;7.314;2023-11-19T07:35:00;12.30;99.90
14006;DHT22;7078;51.542;7.314;2023-11-19T07:37:26;12.30;99.90
14006;DHT22;7078;51.542;7.314;2023-11-19T07:39:51;12.40;99.90
14006;DHT22;7078;51.542;7.314;2023-11-19T07:42:17;12.40;99.90
14006;DHT22;7078;51.542;7.314;2023-11-19T07:44:43;12.40;99.90
14006;DHT22;7078;51.542;7.314;2023-11-19T07:47:09;12.40;99.90
14006;DHT22;7078;51.542;7.314;2023-11-19T07:49:34;12.40;99.90
14006;DHT22;7078;51.542;7.314;2023-11-19T07:52:00;12.40;99.90
14006;DHT22;7078;51.542;7.314;2023-11-19T07:54:25;12.30;99.90
14006;DHT22;7078;51.542;7.314;2023-11-19T07:56:51;12.30;99.90
14006;DHT22;7078;51.542;7.314;2023-11-19T07:59:17;12.20;99.90
14006;DHT22;7078;51.542;7.314;2023-11-19T08:01:42;12.10;99.90
14006;DHT22;7078;51.542;7.314;2023-11-19T08:04:08;12.10;99.90
14006;DHT22;7078;51.542;7.314;2023-11-19T08:06:34;12.00;99.90
14006;DHT22;7078;51.542;7.314;2023-11-19T08:08:59;12.00;99.90
14006;DHT22;7078;51.542;7.314;2023-11-19T08:11:25;12.00;99.90
14006;DHT22;7078;51.542;7.314;2023-11-19T08:13:50;12.00;99.90
14006;DHT22;7078;51.542;7.314;2023-11-19T08:16:16;12.00;99.90
14006;DHT22;7078;51.542;7.314;2023-11-19T08:18:43;12.00;99.90
14006;DHT22;7078;51.542;7.314;2023-11-19T08:21:08;12.00;99.90
14006;DHT22;7078;51.542;7.314;2023-11-19T08:23:35;12.10;99.90
14006;DHT22;7078;51.542;7.314;2023-11-19T08:26:01;12.10;99.90
14006;DHT22;7078;51.542;7.314;2023-11-19T08:28:26;12.10;99.90
14006;DHT22;7078;51.542;7.314;2023-11-19T08:30:52;12.20;99.90
14006;DHT22;7078;51.542;7.314;2023-11-19T08:33:18;12.10;99.90
14006;DHT22;7078;51.542;7.314;2023-11-19T08:35:44;12.20;99.90
14006;DHT22;7078;51.542;7.314;2023-11-19T08:38:10;12.20;99.90
14006;DHT22;7078;51.542;7.314;2023-11-19T08:40:36;12.10;99.90
14006;DHT22;7078;51.542;7.314;2023-11-19T08:43:02;12.20;99.90
14006;DHT22;7078;51.542;7.314;2023-11-19T08:45:28;12.30;99.90
14006;DHT22;7078;51.542;7.314;2023-11-19T08:47:53;12.30;99.90
14006;DHT22;7078;51.542;7.314;2023-11-19T08:50:19;12.30;99.90
14006;DHT22;7078;51.542;7.314;2023-11-19T08:52:44;12.30;99.90
14006;DHT22;7078;51.542;7.314;2023-11-19T08:55:10;12.30;99.90
14006;DHT22;7078;51.542;7.314;2023-11-19T08:57:37;12.30;99.90
14006;DHT22;7078;51.542;7.314;2023-11-19T09:00:02;12.30;99.90
14006;DHT22;7078;51.542;7.314;2023-11-19T09:02:33;12.30;99.90
14006;DHT22;7078;51.542;7.314;2023-11-19T09:04:59;12.30;99.90
14006;DHT22;7078;51.542;7.314;2023-11-19T09:07:25;12.30;99.90
14006;DHT22;7078;51.542;7.314;2023-11-19T09:09:50;12.40;99.90
14006;DHT22;7078;51.542;7.314;2023-11-19T09:12:16;12.40;99.90
14006;DHT22;7078;51.542;7.314;2023-11-19T09:14:41;12.50;99.90
14006;DHT22;7078;51.542;7.314;2023-11-19T09:17:07;12.50;99.90
14006;DHT22;7078;51.542;7.314;2023-11-19T09:19:33;12.50;99.90
14006;DHT22;7078;51.542;7.314;2023-11-19T09:22:01;12.60;99.90
14006;DHT22;7078;51.542;7.314;2023-11-19T09:24:26;12.60;99.90
14006;DHT22;7078;51.542;7.314;2023-11-19T09:26:52;12.70;99.90
14006;DHT22;7078;51.542;7.314;2023-11-19T09:29:17;12.70;99.90
14006;DHT22;7078;51.542;7.314;2023-11-19T09:31:43;12.70;99.90
14006;DHT22;7078;51.542;7.314;2023-11-19T09:34:08;12.80;99.90
14006;DHT22;7078;51.542;7.314;2023-11-19T09:36:34;12.80;99.90
14006;DHT22;7078;51.542;7.314;2023-11-19T09:39:00;12.70;99.90
14006;DHT22;7078;51.542;7.314;2023-11-19T09:41:27;12.70;99.90
14006;DHT22;7078;51.542;7.314;2023-11-19T09:43:53;12.80;99.90
14006;DHT22;7078;51.542;7.314;2023-11-19T09:46:19;13.40;99.90
14006;DHT22;7078;51.542;7.314;2023-11-19T09:48:46;13.90;99.90
14006;DHT22;7078;51.542;7.314;2023-11-19T09:51:13;14.00;99.90
14006;DHT22;7078;51.542;7.314;2023-11-19T09:53:39;13.80;99.90
14006;DHT22;7078;51.542;7.314;2023-11-19T09:56:06;14.00;99.90
14006;DHT22;7078;51.542;7.314;2023-11-19T09:58:33;13.70;99.90
14006;DHT22;7078;51.542;7.314;2023-11-19T10:01:00;13.50;99.90
14006;DHT22;7078;51.542;7.314;2023-11-19T10:03:33;13.20;99.90
14006;DHT22;7078;51.542;7.314;2023-11-19T10:06:04;13.00;99.90
14006;DHT22;7078;51.542;7.314;2023-11-19T10:08:32;12.90;99.90
14006;DHT22;7078;51.542;7.314;2023-11-19T10:10:57;12.80;99.90
14006;DHT22;7078;51.542;7.314;2023-11-19T10:13:28;12.80;99.90
14006;DHT22;7078;51.542;7.314;2023-11-19T10:15:55;12.90;99.90
14006;DHT22;7078;51.542;7.314;2023-11-19T10:18:25;13.10;99.90
14006;DHT22;7078;51.542;7.314;2023-11-19T10:20:51;13.10;99.90
14006;DHT22;7078;51.542;7.314;2023-11-19T10:23:17;13.10;99.90
14006;DHT22;7078;51.542;7.314;2023-11-19T10:25:43;13.20;99.90
14006;DHT22;7078;51.542;7.314;2023-11-19T10:28:08;13.20;99.90
14006;DHT22;7078;51.542;7.314;2023-11-19T10:30:34;13.20;99.90
14006;DHT22;7078;51.542;7.314;2023-11-19T10:33:10;13.30;99.90
14006;DHT22;7078;51.542;7.314;2023-11-19T10:35:53;13.50;99.90
14006;DHT22;7078;51.542;7.314;2023-11-19T10:38:19;13.90;99.90
14006;DHT22;7078;51.542;7.314;2023-11-19T10:40:45;14.10;99.90
14006;DHT22;7078;51.542;7.314;2023-11-19T10:43:10;14.00;99.90
14006;DHT22;7078;51.542;7.314;2023-11-19T10:45:37;13.80;99.90
14006;DHT22;7078;51.542;7.314;2023-11-19T10:48:04;13.60;99.90
14006;DHT22;7078;51.542;7.314;2023-11-19T10:50:35;13.60;99.90
14006;DHT22;7078;51.542;7.314;2023-11-19T10:53:02;13.60;99.90
14006;DHT22;7078;51.542;7.314;2023-11-19T10:55:33;13.70;99.90
14006;DHT22;7078;51.542;7.314;2023-11-19T10:58:07;13.80;99.90
14006;DHT22;7078;51.542;7.314;2023-11-19T11:00:57;13.60;99.90
14006;DHT22;7078;51.542;7.314;2023-11-19T11:03:25;13.50;99.90
14006;DHT22;7078;51.542;7.314;2023-11-19T11:05:51;13.30;99.90
14006;DHT22;7078;51.542;7.314;2023-11-19T11:08:19;13.50;99.90
14006;DHT22;7078;51.542;7.314;2023-11-19T11:10:47;13.50;99.90
14006;DHT22;7078;51.542;7.314;2023-11-19T11:13:14;13.60;99.90
14006;DHT22;7078;51.542;7.314;2023-11-19T11:15:40;13.50;99.90
14006;DHT22;7078;51.542;7.314;2023-11-19T11:18:08;13.40;99.90
14006;DHT22;7078;51.542;7.314;2023-11-19T11:20:34;13.50;99.90
14006;DHT22;7078;51.542;7.314;2023-11-19T11:25:44;13.30;99.90
14006;DHT22;7078;51.542;7.314;2023-11-19T11:28:16;13.30;99.90
14006;DHT22;7078;51.542;7.314;2023-11-19T11:34:02;13.20;99.90
14006;DHT22;7078;51.542;7.314;2023-11-19T11:39:15;13.20;99.90
14006;DHT22;7078;51.542;7.314;2023-11-19T11:41:41;13.30;99.90
14006;DHT22;7078;51.542;7.314;2023-11-19T11:44:07;13.30;99.90
14006;DHT22;7078;51.542;7.314;2023-11-19T11:49:04;13.30;99.90
14006;DHT22;7078;51.542;7.314;2023-11-19T11:57:13;13.40;99.90
14006;DHT22;7078;51.542;7.314;2023-11-19T12:02:12;13.60;99.90
14006;DHT22;7078;51.542;7.314;2023-11-19T12:04:40;13.70;99.90
14006;DHT22;7078;51.542;7.314;2023-11-19T12:07:07;13.50;99.90
14006;DHT22;7078;51.542;7.314;2023-11-19T12:09:33;13.50;99.90
14006;DHT22;7078;51.542;7.314;2023-11-19T12:12:19;13.60;99.90
14006;DHT22;7078;51.542;7.314;2023-11-19T12:15:01;13.50;99.90
14006;DHT22;7078;51.542;7.314;2023-11-19T12:20:04;13.60;99.90
14006;DHT22;7078;51.542;7.314;2023-11-19T12:22:31;13.60;99.90
14006;DHT22;7078;51.542;7.314;2023-11-19T12:24:58;13.60;99.90
14006;DHT22;7078;51.542;7.314;2023-11-19T12:27:24;13.60;99.90
14006;DHT22;7078;51.542;7.314;2023-11-19T12:29:50;13.60;99.90
14006;DHT22;7078;51.542;7.314;2023-11-19T12:32:16;13.60;99.90
14006;DHT22;7078;51.542;7.314;2023-11-19T12:34:41;13.60;99.90
14006;DHT22;7078;51.542;7.314;2023-11-19T12:37:07;13.60;99.90
14006;DHT22;7078;51.542;7.314;2023-11-19T12:39:35;13.60;99.90
14006;DHT22;7078;51.542;7.314;2023-11-19T12:42:01;13.60;99.90
14006;DHT22;7078;51.542;7.314;2023-11-19T12:44:26;13.60;99.90
14006;DHT22;7078;51.542;7.314;2023-11-19T12:47:06;13.60;99.90
14006;DHT22;7078;51.542;7.314;2023-11-19T12:49:32;13.50;99.90
14006;DHT22;7078;51.542;7.314;2023-11-19T12:51:58;13.70;99.90
14006;DHT22;7078;51.542;7.314;2023-11-19T12:54:32;13.60;99.90
14006;DHT22;7078;51.542;7.314;2023-11-19T12:56:58;13.60;99.90
14006;DHT22;7078;51.542;7.314;2023-11-19T12:59:24;13.50;99.90
14006;DHT22;7078;51.542;7.314;2023-11-19T13:01:59;13.50;99.90
14006;DHT22;7078;51.542;7.314;2023-11-19T13:04:31;13.40;99.90
14006;DHT22;7078;51.542;7.314;2023-11-19T13:07:00;13.40;99.90
14006;DHT22;7078;51.542;7.314;2023-11-19T13:09:27;13.30;99.90
14006;DHT22;7078;51.542;7.314;2023-11-19T13:11:53;13.10;99.90
14006;DHT22;7078;51.542;7.314;2023-11-19T13:14:20;13.00;99.90
14006;DHT22;7078;51.542;7.314;2023-11-19T13:16:46;12.80;99.90
14006;DHT22;7078;51.542;7.314;2023-11-19T13:19:15;12.80;99.90
14006;DHT22;7078;51.542;7.314;2023-11-19T13:21:45;12.70;99.90
14006;DHT22;7078;51.542;7.314;2023-11-19T13:24:13;12.70;99.90
14006;DHT22;7078;51.542;7.314;2023-11-19T13:26:38;12.70;99.90
14006;DHT22;7078;51.542;7.314;2023-11-19T13:29:04;12.80;99.90
14006;DHT22;7078;51.542;7.314;2023-11-19T13:31:30;12.90;99.90
14006;DHT22;7078;51.542;7.314;2023-11-19T13:33:56;13.30;99.90
14006;DHT22;7078;51.542;7.314;2023-11-19T13:36:22;13.30;99.90
14006;DHT22;7078;51.542;7.314;2023-11-19T13:38:47;13.10;99.90
14006;DHT22;7078;51.542;7.314;2023-11-19T13:41:13;13.00;99.90
14006;DHT22;7078;51.542;7.314;2023-11-19T13:43:39;13.00;99.90
14006;DHT22;7078;51.542;7.314;2023-11-19T13:46:05;12.90;99.90
14006;DHT22;7078;51.542;7.314;2023-11-19T13:48:31;12.80;99.90
14006;DHT22;7078;51.542;7.314;2023-11-19T13:50:57;12.70;99.90
14006;DHT22;7078;51.542;7.314;2023-11-19T13:53:23;12.70;99.90
14006;DHT22;7078;51.542;7.314;2023-11-19T13:55:51;12.70;99.90
14006;DHT22;7078;51.542;7.314;2023-11-19T13:58:18;12.70;99.90
14006;DHT22;7078;51.542;7.314;2023-11-19T14:00:43;12.70;99.90
14006;DHT22;7078;51.542;7.314;2023-11-19T14:03:09;12.70;99.90
14006;DHT22;7078;51.542;7.314;2023-11-19T14:05:38;12.80;99.90
14006;DHT22;7078;51.542;7.314;2023-11-19T14:08:05;12.90;99.90
14006;DHT22;7078;51.542;7.314;2023-11-19T14:10:37;12.70;99.90
14006;DHT22;7078;51.542;7.314;2023-11-19T14:13:04;12.80;99.90
14006;DHT22;7078;51.542;7.314;2023-11-19T14:15:30;12.80;99.90
14006;DHT22;7078;51.542;7.314;2023-11-19T14:17:55;13.00;99.90
14006;DHT22;7078;51.542;7.314;2023-11-19T14:20:21;12.90;99.90
14006;DHT22;7078;51.542;7.314;2023-11-19T14:22:46;12.90;99.90
14006;DHT22;7078;51.542;7.314;2023-11-19T14:25:15;12.90;99.90
14006;DHT22;7078;51.542;7.314;2023-11-19T14:27:42;12.80;99.90
14006;DHT22;7078;51.542;7.314;2023-11-19T14:30:10;12.90;99.90
14006;DHT22;7078;51.542;7.314;2023-11-19T14:32:40;12.70;99.90
14006;DHT22;7078;51.542;7.314;2023-11-19T14:35:06;12.70;99.90
14006;DHT22;7078;51.542;7.314;2023-11-19T14:37:32;12.70;99.90
14006;DHT22;7078;51.542;7.314;2023-11-19T14:39:58;12.70;99.90
14006;DHT22;7078;51.542;7.314;2023-11-19T14:42:24;12.70;99.90
14006;DHT22;7078;51.542;7.314;2023-11-19T14:44:51;12.60;99.90
14006;DHT22;7078;51.542;7.314;2023-11-19T14:47:19;12.60;99.90
14006;DHT22;7078;51.542;7.314;2023-11-19T14:49:44;12.50;99.90
14006;DHT22;7078;51.542;7.314;2023-11-19T14:52:10;12.40;99.90
14006;DHT22;7078;51.542;7.314;2023-11-19T14:54:36;12.30;99.90
14006;DHT22;7078;51.542;7.314;2023-11-19T14:57:04;12.30;99.90
14006;DHT22;7078;51.542;7.314;2023-11-19T14:59:29;12.20;99.90
14006;DHT22;7078;51.542;7.314;2023-11-19T15:01:55;12.10;99.90
14006;DHT22;7078;51.542;7.314;2023-11-19T15:04:20;12.10;99.90
14006;DHT22;7078;51.542;7.314;2023-11-19T15:06:46;12.10;99.90
14006;DHT22;7078;51.542;7.314;2023-11-19T15:09:11;12.00;99.90
14006;DHT22;7078;51.542;7.314;2023-11-19T15:11:43;12.20;99.90
14006;DHT22;7078;51.542;7.314;2023-11-19T15:14:08;12.10;99.90
14006;DHT22;7078;51.542;7.314;2023-11-19T15:16:34;12.10;99.90
14006;DHT22;7078;51.542;7.314;2023-11-19T15:19:00;12.10;99.90
14006;DHT22;7078;51.542;7.314;2023-11-19T15:21:28;12.10;99.90
14006;DHT22;7078;51.542;7.314;2023-11-19T15:23:55;12.00;99.90
14006;DHT22;7078;51.542;7.314;2023-11-19T15:26:21;12.00;99.90
14006;DHT22;7078;51.542;7.314;2023-11-19T15:28:47;11.90;99.90
14006;DHT22;7078;51.542;7.314;2023-11-19T15:31:12;11.90;99.90
14006;DHT22;7078;51.542;7.314;2023-11-19T15:33:40;11.90;99.90
14006;DHT22;7078;51.542;7.314;2023-11-19T15:36:06;11.80;99.90
14006;DHT22;7078;51.542;7.314;2023-11-19T15:38:33;11.90;99.90
14006;DHT22;7078;51.542;7.314;2023-11-19T15:40:59;11.90;99.90
14006;DHT22;7078;51.542;7.314;2023-11-19T15:43:24;11.80;99.90
14006;DHT22;7078;51.542;7.314;2023-11-19T15:45:50;11.80;99.90
14006;DHT22;7078;51.542;7.314;2023-11-19T15:48:16;11.80;99.90
14006;DHT22;7078;51.542;7.314;2023-11-19T15:50:43;11.80;99.90
14006;DHT22;7078;51.542;7.314;2023-11-19T15:53:10;11.80;99.90
14006;DHT22;7078;51.542;7.314;2023-11-19T15:55:35;11.70;99.90
14006;DHT22;7078;51.542;7.314;2023-11-19T15:58:01;11.70;99.90
14006;DHT22;7078;51.542;7.314;2023-11-19T16:00:26;11.50;99.90
14006;DHT22;7078;51.542;7.314;2023-11-19T16:02:52;11.50;99.90